createdAt,value
2022-12-25T00:01:24.637Z,2.30
2022-12-25T00:03:52.655Z,2.00
2022-12-25T00:06:20.254Z,1.90
2022-12-25T00:08:47.186Z,2.50
2022-12-25T00:11:19.917Z,2.60
2022-12-25T00:13:48.002Z,2.20
2022-12-25T00:16:22.388Z,2.90
2022-12-25T00:18:51.349Z,2.77
2022-12-25T00:21:20.045Z,2.50
2022-12-25T00:23:47.263Z,2.83
2022-12-25T00:26:17.458Z,2.53
2022-12-25T00:28:44.806Z,2.70
2022-12-25T00:31:15.536Z,2.53
2022-12-25T00:33:45.201Z,2.70
2022-12-25T00:36:14.003Z,2.70
2022-12-25T00:38:41.753Z,2.70
2022-12-25T00:41:46.826Z,2.53
2022-12-25T00:44:14.118Z,2.90
2022-12-25T00:46:42.289Z,2.60
2022-12-25T00:49:10.598Z,2.50
2022-12-25T00:51:37.553Z,3.03
2022-12-25T00:54:04.497Z,2.83
2022-12-25T00:56:31.435Z,3.10
2022-12-25T00:58:58.244Z,2.70
2022-12-25T01:01:25.350Z,2.60
2022-12-25T01:03:52.315Z,2.33
2022-12-25T01:06:19.152Z,3.30
2022-12-25T01:09:04.593Z,3.10
2022-12-25T01:11:32.289Z,2.87
2022-12-25T01:13:59.243Z,2.97
2022-12-25T01:16:26.351Z,2.87
2022-12-25T01:18:53.472Z,2.80
2022-12-25T01:21:21.378Z,3.00
2022-12-25T01:23:51.014Z,3.40
2022-12-25T01:26:19.123Z,3.00
2022-12-25T01:28:46.650Z,3.47
2022-12-25T01:31:15.955Z,2.97
2022-12-25T01:33:44.290Z,3.33
2022-12-25T01:36:32.136Z,3.63
2022-12-25T01:38:59.012Z,3.63
2022-12-25T01:41:25.914Z,2.73
2022-12-25T01:44:08.121Z,3.10
2022-12-25T01:46:35.773Z,3.23
2022-12-25T01:49:08.438Z,2.90
2022-12-25T01:51:38.254Z,2.40
2022-12-25T01:54:09.719Z,3.00
2022-12-25T01:56:39.185Z,2.20
2022-12-25T01:59:09.165Z,2.87
2022-12-25T02:01:36.402Z,2.67
2022-12-25T02:04:13.837Z,3.07
2022-12-25T02:06:41.667Z,2.73
2022-12-25T02:09:08.545Z,2.73
2022-12-25T02:11:54.151Z,2.80
2022-12-25T02:14:21.122Z,2.90
2022-12-25T02:16:57.508Z,2.47
2022-12-25T02:19:29.289Z,2.43
2022-12-25T02:22:28.467Z,2.90
2022-12-25T02:25:21.061Z,2.83
2022-12-25T02:27:59.483Z,2.63
2022-12-25T02:30:28.475Z,2.63
2022-12-25T02:33:24.701Z,3.50
2022-12-25T02:35:55.681Z,2.40
2022-12-25T02:38:35.867Z,2.60
2022-12-25T02:41:10.416Z,2.70
2022-12-25T02:44:01.424Z,2.77
2022-12-25T02:46:50.103Z,2.63
2022-12-25T02:49:39.831Z,2.90
2022-12-25T02:52:31.990Z,3.20
2022-12-25T02:55:25.413Z,3.03
2022-12-25T02:58:14.151Z,2.97
2022-12-25T03:01:05.878Z,3.10
2022-12-25T03:03:53.665Z,2.90
2022-12-25T03:06:41.454Z,2.87
2022-12-25T03:09:29.407Z,3.57
2022-12-25T03:12:05.391Z,3.50
2022-12-25T03:14:50.868Z,3.30
2022-12-25T03:17:18.021Z,3.53
2022-12-25T03:20:03.448Z,3.87
2022-12-25T03:22:50.938Z,3.73
2022-12-25T03:25:37.822Z,3.10
2022-12-25T03:28:05.987Z,3.03
2022-12-25T03:31:14.244Z,3.33
2022-12-25T03:34:15.107Z,3.60
2022-12-25T03:37:18.758Z,3.33
2022-12-25T03:40:28.442Z,3.73
2022-12-25T03:43:23.450Z,3.10
2022-12-25T03:46:05.391Z,2.53
2022-12-25T03:48:54.974Z,3.40
2022-12-25T03:51:48.177Z,3.00
2022-12-25T03:54:38.029Z,3.03
2022-12-25T03:57:23.699Z,2.93
2022-12-25T04:00:08.741Z,2.90
2022-12-25T04:02:56.200Z,3.47
2022-12-25T04:05:41.969Z,2.83
2022-12-25T04:08:27.185Z,3.37
2022-12-25T04:11:12.639Z,3.20
2022-12-25T04:13:58.152Z,3.20
2022-12-25T04:16:43.353Z,2.87
2022-12-25T04:19:28.539Z,3.00
2022-12-25T04:22:13.861Z,2.47
2022-12-25T04:24:59.302Z,2.80
2022-12-25T04:27:44.715Z,3.17
2022-12-25T04:30:37.990Z,3.30
2022-12-25T04:33:23.791Z,3.37
2022-12-25T04:36:09.087Z,3.30
2022-12-25T04:38:37.147Z,3.73
2022-12-25T04:41:05.022Z,3.10
2022-12-25T04:43:32.152Z,3.30
2022-12-25T04:46:00.990Z,2.60
2022-12-25T04:48:30.093Z,2.70
2022-12-25T04:50:57.060Z,2.90
2022-12-25T04:53:24.760Z,3.30
2022-12-25T04:56:00.994Z,2.23
2022-12-25T04:58:27.896Z,3.23
2022-12-25T05:01:11.266Z,2.40
2022-12-25T05:03:38.530Z,3.00
2022-12-25T05:06:06.518Z,2.70
2022-12-25T05:08:35.540Z,2.37
2022-12-25T05:11:07.534Z,3.50
2022-12-25T05:13:34.627Z,3.00
2022-12-25T05:16:05.901Z,2.80
2022-12-25T05:18:32.998Z,2.73
2022-12-25T05:20:59.951Z,2.87
2022-12-25T05:23:26.965Z,2.87
2022-12-25T05:25:53.813Z,2.90
2022-12-25T05:28:20.652Z,2.43
2022-12-25T05:30:47.788Z,2.63
2022-12-25T05:33:15.112Z,2.97
2022-12-25T05:35:41.965Z,2.87
2022-12-25T05:38:08.923Z,3.07
2022-12-25T05:40:39.966Z,3.30
2022-12-25T05:43:07.325Z,2.83
2022-12-25T05:45:34.456Z,3.83
2022-12-25T05:48:01.509Z,2.97
2022-12-25T05:50:28.693Z,3.07
2022-12-25T05:53:09.153Z,3.13
2022-12-25T05:55:37.651Z,2.90
2022-12-25T05:58:05.821Z,3.23
2022-12-25T06:00:33.864Z,3.40
2022-12-25T06:03:01.081Z,3.80
2022-12-25T06:05:28.288Z,3.93
2022-12-25T06:07:55.249Z,3.17
2022-12-25T06:10:22.117Z,3.20
2022-12-25T06:12:51.370Z,3.77
2022-12-25T06:15:18.324Z,3.90
2022-12-25T06:17:45.180Z,3.90
2022-12-25T06:20:12.035Z,2.87
2022-12-25T06:22:39.022Z,3.23
2022-12-25T06:25:06.490Z,3.53
2022-12-25T06:27:33.455Z,3.13
2022-12-25T06:30:00.397Z,3.10
2022-12-25T06:32:27.250Z,3.87
2022-12-25T06:34:54.120Z,4.10
2022-12-25T06:37:20.996Z,3.07
2022-12-25T06:39:48.203Z,3.73
2022-12-25T06:42:15.038Z,3.77
2022-12-25T06:44:41.950Z,3.90
2022-12-25T06:47:08.939Z,3.83
2022-12-25T06:49:35.969Z,3.40
2022-12-25T06:52:02.899Z,3.27
2022-12-25T06:54:29.939Z,3.60
2022-12-25T06:56:57.017Z,4.00
2022-12-25T06:59:23.919Z,4.73
2022-12-25T07:01:54.739Z,4.60
2022-12-25T07:04:32.353Z,4.40
2022-12-25T07:07:04.401Z,4.60
2022-12-25T07:09:39.372Z,4.50
2022-12-25T07:12:19.581Z,4.33
2022-12-25T07:14:49.074Z,3.40
2022-12-25T07:17:17.058Z,3.43
2022-12-25T07:19:45.476Z,3.97
2022-12-25T07:22:13.328Z,3.53
2022-12-25T07:24:40.239Z,3.67
2022-12-25T07:27:08.348Z,3.40
2022-12-25T07:29:35.298Z,2.73
2022-12-25T07:32:02.461Z,3.00
2022-12-25T07:34:29.407Z,3.20
2022-12-25T07:36:56.269Z,3.43
2022-12-25T07:39:23.881Z,2.60
2022-12-25T07:41:51.491Z,2.50
2022-12-25T07:44:18.650Z,2.80
2022-12-25T07:46:45.770Z,2.60
2022-12-25T07:49:12.696Z,2.20
2022-12-25T07:51:39.658Z,2.10
2022-12-25T07:54:06.546Z,2.20
2022-12-25T07:56:33.481Z,2.30
2022-12-25T07:59:00.559Z,2.10
2022-12-25T08:01:30.742Z,2.70
2022-12-25T08:04:00.988Z,2.10
2022-12-25T08:06:32.223Z,2.07
2022-12-25T08:09:10.809Z,2.33
2022-12-25T08:11:38.180Z,2.20
2022-12-25T08:14:09.122Z,2.67
2022-12-25T08:16:36.296Z,2.57
2022-12-25T08:19:03.269Z,3.50
2022-12-25T08:21:30.157Z,2.83
2022-12-25T08:23:59.585Z,3.43
2022-12-25T08:26:26.465Z,2.50
2022-12-25T08:28:53.445Z,2.67
2022-12-25T08:31:25.741Z,2.40
2022-12-25T08:33:55.481Z,2.73
2022-12-25T08:36:23.422Z,2.20
2022-12-25T08:38:50.805Z,2.53
2022-12-25T08:41:18.056Z,2.40
2022-12-25T08:43:45.220Z,2.40
2022-12-25T08:46:12.649Z,3.20
2022-12-25T08:48:42.835Z,3.07
2022-12-25T08:51:15.270Z,2.40
2022-12-25T08:53:47.738Z,2.10
2022-12-25T08:56:15.403Z,2.33
2022-12-25T08:58:43.056Z,2.23
2022-12-25T09:01:10.963Z,2.03
2022-12-25T09:03:38.282Z,2.73
2022-12-25T09:06:10.887Z,3.20
2022-12-25T09:08:44.053Z,2.10
2022-12-25T09:11:15.625Z,2.23
2022-12-25T09:13:42.552Z,2.07
2022-12-25T09:16:13.281Z,2.83
2022-12-25T09:18:40.686Z,2.50
2022-12-25T09:21:11.330Z,2.53
2022-12-25T09:23:38.374Z,2.50
2022-12-25T09:26:07.041Z,2.13
2022-12-25T09:28:35.063Z,2.10
2022-12-25T09:31:02.192Z,1.93
2022-12-25T09:33:29.247Z,1.90
2022-12-25T09:35:57.787Z,2.00
2022-12-25T09:38:25.406Z,2.20
2022-12-25T09:41:37.433Z,1.90
2022-12-25T09:44:09.987Z,2.93
2022-12-25T09:46:44.081Z,2.43
2022-12-25T09:49:38.585Z,1.97
2022-12-25T09:52:11.509Z,2.37
2022-12-25T09:54:57.441Z,2.13
2022-12-25T09:57:25.705Z,2.20
2022-12-25T09:59:54.968Z,2.00
2022-12-25T10:03:00.147Z,2.10
2022-12-25T10:05:44.471Z,1.93
2022-12-25T10:08:36.289Z,2.67
2022-12-25T10:11:15.028Z,2.47
2022-12-25T10:13:47.805Z,2.80
2022-12-25T10:16:34.221Z,2.43
2022-12-25T10:19:54.914Z,1.77
2022-12-25T10:22:36.187Z,2.30
2022-12-25T10:25:07.073Z,2.33
2022-12-25T10:27:41.944Z,2.93
2022-12-25T10:30:21.820Z,2.50
2022-12-25T10:32:49.722Z,2.37
2022-12-25T10:38:45.101Z,1.67
2022-12-25T10:41:21.080Z,2.40
2022-12-25T10:43:54.055Z,1.87
2022-12-25T10:46:23.653Z,2.30
2022-12-25T10:49:00.598Z,2.10
2022-12-25T10:51:33.278Z,1.90
2022-12-25T10:54:03.072Z,3.30
2022-12-25T10:56:33.133Z,2.17
2022-12-25T10:59:11.436Z,2.90
2022-12-25T11:01:47.424Z,2.23
2022-12-25T11:04:28.727Z,2.37
2022-12-25T11:07:06.457Z,3.77
2022-12-25T11:09:34.241Z,1.83
2022-12-25T11:12:01.586Z,1.97
2022-12-25T11:14:29.257Z,2.33
2022-12-25T11:17:07.530Z,2.13
2022-12-25T11:19:34.524Z,20.60
2022-12-25T11:22:21.396Z,3.73
2022-12-25T11:24:48.432Z,2.57
2022-12-25T11:27:28.006Z,2.40
2022-12-25T11:30:01.830Z,2.43
2022-12-25T11:32:37.899Z,2.53
2022-12-25T11:35:11.921Z,2.40
2022-12-25T11:37:44.245Z,2.07
2022-12-25T11:40:44.650Z,2.73
2022-12-25T12:00:03.779Z,387.77
2022-12-25T12:02:47.379Z,114.97
2022-12-25T12:09:31.955Z,100.67
2022-12-25T12:22:28.479Z,377.53
2022-12-25T12:25:17.135Z,171.33
2022-12-25T12:27:44.753Z,264.37
2022-12-25T12:30:37.872Z,446.43
2022-12-25T12:33:07.213Z,291.80
2022-12-25T12:35:38.388Z,257.57
2022-12-25T12:38:17.265Z,200.47
2022-12-25T12:40:51.013Z,557.93
2022-12-25T12:43:44.281Z,523.47
2022-12-25T12:46:17.939Z,440.10
2022-12-25T12:48:48.223Z,430.90
2022-12-25T12:51:31.505Z,341.57
2022-12-25T12:54:29.238Z,5.83
2022-12-25T12:57:06.607Z,1.70
2022-12-25T12:59:40.200Z,1.50
2022-12-25T13:02:25.593Z,1.40
2022-12-25T13:05:01.015Z,1.43
2022-12-25T13:07:36.053Z,1.37
2022-12-25T13:10:41.389Z,1.77
2022-12-25T13:13:49.898Z,1.93
2022-12-25T13:16:44.897Z,1.73
2022-12-25T13:19:16.216Z,1.70
2022-12-25T13:21:53.400Z,1.60
2022-12-25T13:24:23.090Z,1.50
2022-12-25T13:26:50.696Z,1.53
2022-12-25T13:29:33.910Z,1.90
2022-12-25T13:32:02.642Z,3.53
2022-12-25T13:34:38.533Z,3.87
2022-12-25T13:37:13.523Z,2.73
2022-12-25T13:40:06.892Z,2.10
2022-12-25T13:42:37.781Z,1.70
2022-12-25T13:45:25.992Z,2.00
2022-12-25T13:47:55.604Z,1.90
2022-12-25T13:50:32.405Z,2.37
2022-12-25T13:53:16.234Z,1.50
2022-12-25T13:55:47.243Z,1.73
2022-12-25T13:58:23.927Z,2.00
2022-12-25T14:00:55.661Z,2.00
2022-12-25T14:03:29.964Z,2.10
2022-12-25T14:06:02.260Z,2.63
2022-12-25T14:08:50.058Z,2.30
2022-12-25T14:11:20.801Z,2.23
2022-12-25T14:13:52.000Z,1.67
2022-12-25T14:16:20.748Z,1.53
2022-12-25T14:18:58.851Z,1.53
2022-12-25T14:21:30.766Z,2.40
2022-12-25T14:23:58.427Z,2.03
2022-12-25T14:26:33.778Z,1.67
2022-12-25T14:29:12.211Z,2.37
2022-12-25T14:31:45.165Z,2.83
2022-12-25T14:34:17.176Z,2.10
2022-12-25T14:36:47.284Z,2.83
2022-12-25T14:39:40.538Z,2.03
2022-12-25T14:42:22.718Z,2.50
2022-12-25T14:45:26.906Z,2.10
2022-12-25T14:47:57.318Z,2.63
2022-12-25T14:50:38.670Z,3.37
2022-12-25T14:53:18.139Z,3.30
2022-12-25T14:55:50.564Z,3.03
2022-12-25T14:58:25.328Z,3.70
2022-12-25T15:01:00.951Z,3.77
2022-12-25T15:03:31.190Z,2.60
2022-12-25T15:06:01.513Z,2.57
2022-12-25T15:08:30.113Z,3.77
2022-12-25T15:11:00.985Z,4.23
2022-12-25T15:13:30.509Z,4.47
2022-12-25T15:16:09.012Z,4.20
2022-12-25T15:18:40.082Z,3.50
2022-12-25T15:21:15.704Z,5.40
2022-12-25T15:23:42.706Z,3.23
2022-12-25T15:30:09.249Z,3.07
2022-12-25T15:32:31.866Z,3.17
2022-12-25T15:34:58.728Z,3.20
2022-12-25T15:37:25.654Z,3.70
2022-12-25T15:39:52.498Z,3.53
2022-12-25T15:42:23.238Z,4.10
2022-12-25T15:44:50.577Z,3.97
2022-12-25T15:47:22.964Z,4.43
2022-12-25T15:49:49.974Z,3.53
2022-12-25T15:52:17.647Z,4.27
2022-12-25T15:54:44.582Z,4.20
2022-12-25T15:57:19.592Z,4.80
2022-12-25T15:59:46.677Z,5.40
2022-12-25T16:02:17.133Z,5.43
2022-12-25T16:04:44.968Z,3.80
2022-12-25T16:13:50.707Z,3.83
2022-12-25T16:16:33.057Z,3.60
2022-12-25T16:19:00.049Z,3.33
2022-12-25T16:21:29.543Z,4.33
2022-12-25T16:23:56.463Z,3.90
2022-12-25T16:26:23.345Z,3.03
2022-12-25T16:28:50.215Z,3.23
2022-12-25T16:31:17.232Z,3.30
2022-12-25T16:33:44.208Z,3.47
2022-12-25T16:36:11.104Z,3.10
2022-12-25T16:38:37.967Z,3.33
2022-12-25T16:41:04.928Z,3.20
2022-12-25T16:43:31.749Z,2.77
2022-12-25T16:45:58.594Z,3.20
2022-12-25T16:48:25.525Z,3.00
2022-12-25T16:50:52.365Z,2.83
2022-12-25T16:53:19.560Z,3.50
2022-12-25T16:55:46.571Z,2.57
2022-12-25T16:58:13.415Z,3.83
2022-12-25T17:00:44.253Z,3.70
2022-12-25T17:03:16.270Z,2.80
2022-12-25T17:05:43.397Z,3.13
2022-12-25T17:08:10.277Z,3.50
2022-12-25T17:10:38.857Z,3.83
2022-12-25T17:13:05.908Z,3.80
2022-12-25T17:15:32.776Z,3.67
2022-12-25T17:17:59.698Z,4.13
2022-12-25T17:20:26.645Z,4.90
2022-12-25T17:22:53.640Z,3.27
2022-12-25T17:25:20.508Z,5.47
2022-12-25T17:27:50.602Z,4.53
2022-12-25T17:30:17.499Z,3.80
2022-12-25T17:32:44.369Z,4.00
2022-12-25T17:35:11.259Z,3.20
2022-12-25T17:37:38.734Z,4.37
2022-12-25T17:40:06.583Z,4.23
2022-12-25T17:42:33.476Z,8.30
2022-12-25T17:45:00.357Z,9.30
2022-12-25T17:47:27.503Z,10.37
2022-12-25T17:49:54.387Z,10.57
2022-12-25T17:52:21.277Z,7.60
2022-12-25T17:54:48.198Z,8.63
2022-12-25T17:57:15.169Z,8.77
2022-12-25T17:59:42.093Z,9.20
2022-12-25T18:02:10.650Z,6.77
2022-12-25T18:04:37.902Z,7.30
2022-12-25T18:07:04.779Z,10.43
2022-12-25T18:09:31.663Z,17.10
2022-12-25T18:11:59.272Z,7.07
2022-12-25T18:14:26.159Z,10.07
2022-12-25T18:16:53.190Z,7.27
2022-12-25T18:19:20.381Z,8.70
2022-12-25T18:21:47.238Z,10.70
2022-12-25T18:24:14.203Z,10.90
2022-12-25T18:26:41.133Z,11.97
2022-12-25T18:29:08.066Z,12.10
2022-12-25T18:31:35.306Z,12.07
2022-12-25T18:34:03.556Z,11.37
2022-12-25T18:36:31.045Z,11.07
2022-12-25T18:38:58.525Z,11.13
2022-12-25T18:41:28.073Z,6.30
2022-12-25T18:43:55.992Z,6.13
2022-12-25T18:46:25.516Z,7.33
2022-12-25T18:48:54.953Z,7.87
2022-12-25T18:51:22.645Z,9.10
2022-12-25T18:53:49.700Z,13.03
2022-12-25T18:56:18.043Z,11.50
2022-12-25T19:02:06.551Z,8.97
2022-12-25T19:04:33.687Z,9.50
2022-12-25T19:07:00.680Z,11.80
2022-12-25T19:09:27.695Z,15.27
2022-12-25T19:11:57.439Z,13.57
2022-12-25T19:14:27.293Z,14.13
2022-12-25T19:16:55.960Z,6.97
2022-12-25T19:19:26.395Z,7.77
2022-12-25T19:21:58.050Z,7.13
2022-12-25T19:24:29.325Z,9.37
2022-12-25T19:26:57.893Z,7.90
2022-12-25T19:29:27.345Z,5.87
2022-12-25T19:31:56.905Z,7.87
2022-12-25T19:34:25.701Z,5.23
2022-12-25T19:36:53.651Z,4.90
2022-12-25T19:39:22.174Z,4.63
2022-12-25T19:41:49.622Z,5.47
2022-12-25T19:44:16.698Z,8.53
2022-12-25T19:46:46.592Z,7.53
2022-12-25T19:49:13.982Z,6.63
2022-12-25T19:51:44.318Z,4.20
2022-12-25T19:54:20.656Z,3.50
2022-12-25T19:56:49.042Z,3.27
2022-12-25T19:59:15.980Z,2.70
2022-12-25T20:01:43.804Z,3.40
2022-12-25T20:04:11.218Z,4.70
2022-12-25T20:06:40.372Z,3.63
2022-12-25T20:09:10.756Z,5.17
2022-12-25T20:11:38.632Z,4.90
2022-12-25T20:14:12.137Z,4.60
2022-12-25T20:16:40.404Z,4.87
2022-12-25T20:19:10.950Z,5.70
2022-12-25T20:21:43.563Z,5.97
2022-12-25T20:24:11.378Z,6.00
2022-12-25T20:26:40.767Z,4.00
2022-12-25T20:29:13.783Z,5.57
2022-12-25T20:31:41.796Z,6.13
2022-12-25T20:34:11.649Z,7.30
2022-12-25T20:36:38.701Z,7.10
2022-12-25T20:39:09.687Z,7.20
2022-12-25T20:41:37.868Z,5.57
2022-12-25T20:44:06.714Z,2.87
2022-12-25T20:46:33.831Z,4.93
2022-12-25T20:49:02.413Z,6.33
2022-12-25T20:51:29.706Z,6.03
2022-12-25T20:53:59.233Z,4.90
2022-12-25T20:56:27.211Z,5.63
2022-12-25T20:58:59.216Z,7.17
2022-12-25T21:01:27.976Z,4.40
2022-12-25T21:03:56.240Z,4.67
2022-12-25T21:06:23.855Z,4.63
2022-12-25T21:08:50.863Z,4.20
2022-12-25T21:11:18.286Z,4.57
2022-12-25T21:13:46.245Z,3.97
2022-12-25T21:16:17.267Z,3.40
2022-12-25T21:18:44.461Z,3.53
2022-12-25T21:21:11.680Z,3.83
2022-12-25T21:23:42.740Z,3.30
2022-12-25T21:26:25.514Z,3.20
2022-12-25T21:28:55.524Z,3.27
2022-12-25T21:31:23.010Z,3.33
2022-12-25T21:33:53.203Z,2.70
2022-12-25T21:36:34.478Z,3.43
2022-12-25T21:39:07.342Z,4.50
2022-12-25T21:41:36.736Z,5.67
2022-12-25T21:44:04.434Z,4.57
2022-12-25T21:46:31.601Z,3.93
2022-12-25T21:48:59.153Z,5.20
2022-12-25T21:51:50.719Z,10.20
2022-12-25T21:54:19.570Z,8.07
2022-12-25T21:56:48.335Z,6.80
2022-12-25T21:59:20.746Z,5.40
2022-12-25T22:01:49.163Z,4.07
2022-12-25T22:04:17.408Z,3.47
2022-12-25T22:07:03.681Z,4.30
2022-12-25T22:09:33.850Z,4.40
2022-12-25T22:12:21.416Z,5.07
2022-12-25T22:14:54.728Z,12.73
2022-12-25T22:17:44.294Z,6.17
2022-12-25T22:20:18.565Z,6.27
2022-12-25T22:22:46.012Z,5.93
2022-12-25T22:25:14.465Z,5.67
2022-12-25T22:27:43.105Z,10.13
2022-12-25T22:30:13.784Z,7.33
2022-12-25T22:32:41.144Z,4.03
2022-12-25T22:35:08.908Z,5.60
2022-12-25T22:37:36.176Z,4.43
2022-12-25T22:40:05.990Z,6.57
2022-12-25T22:42:33.222Z,5.60
2022-12-25T22:45:00.192Z,8.33
2022-12-25T22:47:27.114Z,9.60
2022-12-25T22:49:54.041Z,7.17
2022-12-25T22:52:21.100Z,5.10
2022-12-25T22:54:48.008Z,4.53
2022-12-25T22:57:15.161Z,3.47
2022-12-25T22:59:42.166Z,3.70
2022-12-25T23:02:09.105Z,3.63
2022-12-25T23:04:36.344Z,3.50
2022-12-25T23:07:03.348Z,4.17
2022-12-25T23:09:30.561Z,4.13
2022-12-25T23:11:58.747Z,4.40
2022-12-25T23:14:38.770Z,4.97
2022-12-25T23:17:30.827Z,5.03
2022-12-25T23:20:18.538Z,4.47
2022-12-25T23:23:05.170Z,4.60
2022-12-25T23:25:52.760Z,3.90
2022-12-25T23:28:40.769Z,4.47
2022-12-25T23:31:08.053Z,4.80
2022-12-25T23:33:35.150Z,5.40
2022-12-25T23:36:02.041Z,5.13
2022-12-25T23:38:28.981Z,5.40
2022-12-25T23:40:55.897Z,5.47
2022-12-25T23:43:22.844Z,6.83
2022-12-25T23:45:49.763Z,5.20
2022-12-25T23:48:16.624Z,6.33
2022-12-25T23:50:43.523Z,9.97
2022-12-25T23:53:11.089Z,7.40
2022-12-25T23:55:38.110Z,7.40
2022-12-25T23:58:05.505Z,6.70
